NFTF/TBU METAR and TAF weather

Enter ICAO airport designator
Station Type Date Time Source
NFTF METAR 2019/02/16 17:30 UTC NOAA

NFTF 161730Z 00000KT 1500 FG SKC 23/23 Q1008


Station Type Date Time Source
NFTF Decoded METAR 2019/02/16 17:30 UTC NOAA

Fua'Amotu, Tonga (NFTF) 21-14S 175-09W 41M
Feb 16, 2019 - 12:30 PM EST / 2019.02.16 1730 UTC
Wind: Calm:0
Visibility: less than 1 mile:0
Sky conditions: clear
Weather: fog
Temperature: 73 F (23 C)
Dew Point: 73 F (23 C)
Relative Humidity: 100%
Pressure (altimeter): 29.77 in. Hg (1008 hPa)
ob: NFTF 161730Z 00000KT 1500 FG SKC 23/23 Q1008
cycle: 17

Station Type Date Time Source
NFTF TAF 2019/02/16 18:30 UTC NOAA

TAF NFTF 161724Z 1618/1718 VRB02KT 1000 FG
FM161830 07008KT 9999 FEW018


Example: see airport list